Lagrange, ME

7:34 AM EDT on July 11, 2014 (GMT -0400)
KMEGARLA2 Elev 410 ft | 45.02 °N, 69.13 °W | Change Station

Current weather conditions updated 37 seconds ago

Mostly Cloudy
Mostly Cloudy
63.0 °F
Feels Like 63.0 °F
N
1.0
Wind Variable Wind from NW
Gusts 5.0 mph

Today is forecast to be Much Cooler than yesterday.

Today
High -- | Low -- °F
--% Chance of Precip.
Yesterday
High -- | Low -- °F
Precip. -- in
4:58 AM 8:22 PM
Waxing Gibbous, 99% visible
Pressure 30.21 in
Visibility 10.0 miles
Clouds Few 6000 ft
Mostly Cloudy 25000 ft
Dew Point 56 °F
Humidity 77%
Rainfall 0.00 in
Snow Depth Not available.
UV 1 out of 12
Pollen 5.10 out of 12
Air Quality Not available.
Flu Activity Regional
METAR KBGR 111053Z 00000KT 10SM FEW060 BKN250 14/11 A3022 RMK AO2 SLP229 T01440111

More Conditions Fewer Conditions

Pressure 30.21 in
Visibility 10.0 miles
Clouds Few 6000 ft
Mostly Cloudy 25000 ft
Dew Point 56 °F
Humidity 77%
Rainfall 0.00 in
Snow Depth Not available.
UV 1 out of 12
Pollen 5.10 out of 12
Air Quality Not available.
Flu Activity Regional
METAR KBGR 111053Z 00000KT 10SM FEW060 BKN250 14/11 A3022 RMK AO2 SLP229 T01440111

More Conditions Fewer Conditions

10-Day Weather Forecast

Almanac

Astronomy

Jul. 11, 2014 Rise Set
Actual Time 4:58 AM EDT 8:22 PM EDT
Civil Twilight 4:22 AM EDT 8:59 PM EDT
Nautical Twilight 3:34 AM EDT 9:46 PM EDT
Astronomical Twilight 2:32 AM EDT 10:47 PM EDT
Moon 7:25 PM EDT 4:10 AM EDT
Length of Visible Light 16h 36m
Length of Day
15h 23m
Tomorrow will be 1m 26s shorter.
Waxing Gibbous, 99% of the Moon is Illuminated
Today
Waxing Gibbous
Jul 12
Full
Jul 18
Last Quarter
Jul 26
New
Aug 3
First Quarter

Today's Extremes

State Highs State Lows

Community

WunderPhotos

Upload Photos

1,732,425 photos uploaded!

WunderBlogs® & News

Nearby

Air Quality

  Air Quality AQ Index Pollutant
Friday Good
OZONE
Friday Good
PM2.5
Saturday Good
OZONE
Saturday Good
PM2.5
Sunday Good
OZONE
Sunday Good
PM2.5
Monday Good
OZONE
Monday Good
PM2.5
Tuesday Good
OZONE
Tuesday Good
PM2.5

Snow Depth

Station Depth Elevation
No new snow has been reported.

Earthquake Activity

City Distance Mag. Time & Date
No recent earthquake activity has been reported nearby.
Minimum magnitude displayed is 2.5.

Coastal Water Temperatures

Place Temperature
No Stations Reporting

Nearby Weather Stations

Station Location Temp. Dew Point Humidity Wind Precip. Elev Updated Type
Garland, ME 63.0 °F 56 °F 77% NW  at  1.0 mph 0.00 in / hr 410 ft 7:33 AM EDT Rapid Fire
Glenburn Elementary, Glenburn, ME 62.4 °F 52 °F 69% SE  at  1.0 mph 0.00 in / hr 190 ft 7:30 AM EDT Normal
RAWS SUNKHAZE MEADOWS ME, Milford, ME 52 °F 51 °F 98% North  at  0 mph 0.00 in / hr 49 ft 6:31 AM EDT MADIS
Libbey Lane, Glenburn, ME 55.8 °F 53 °F 91% NNE  at  0.0 mph - / hr 194 ft 7:23 AM EDT Normal

Show More Stations Show Fewer Stations